METAR Data
IDs: Format: Raw Decoded Include TAF

Data at: 1308 UTC 16 Oct 2018

PAMM 161256Z AUTO 10003KT 10SM CLR 07/05 A3024 RMK AO2 SLP231 T00720050
PAMM 161156Z AUTO 00000KT 10SM CLR 09/06 A3024 RMK AO2 SLP232 T00940056 10106 20078 56004
PAMM 161056Z AUTO 00000KT 10SM CLR 08/05 A3025 RMK AO2 SLP233 T00830050
PAMM 160956Z AUTO 00000KT 10SM CLR 11/03 A3025 RMK AO2 SLP234 T01060033
PAMM 160856Z AUTO 00000KT 10SM CLR 09/06 A3025 RMK AO2 SLP236 T00940056 58007
PAMM 160756Z AUTO 00000KT 5SM HZ CLR 09/04 A3026 RMK AO2 SLP238 T00940044 401610078
PAMM 160656Z AUTO 12003KT 10SM CLR 09/05 A3027 RMK AO2 SLP241 T00890050
PAMM 160556Z AUTO 00000KT 10SM CLR 09/03 A3027 RMK AO2 SLP242 T00940028 10150 20083 56008
PAMM 160356Z AUTO VRB03KT 10SM CLR 09/04 A3028 RMK AO2 SLP246 T00940039
PAMM 160256Z AUTO 00000KT 10SM CLR 10/05 A3030 RMK AO2 SLP251 T01000050 56009
PAMM 160156Z AUTO 00000KT 10SM CLR 11/04 A3031 RMK AO2 SLP254 T01110044
PAMM 160056Z AUTO 00000KT 10SM CLR 13/05 A3031 RMK AO2 SLP256 T01280050
PAMM 152356Z AUTO 19005KT 10SM CLR 15/01 A3033 RMK AO2 SLP260 T01500006 10161 20094 58008
PAMM 152256Z AUTO VRB05KT 10SM CLR 16/01 A3033 RMK AO2 SLP263 T01610006
PAMM 152156Z AUTO 17009KT 10SM CLR 16/01 A3035 RMK AO2 SLP267 T01560011
PAMM 152056Z AUTO 17007KT 10SM CLR 15/03 A3035 RMK AO2 SLP269 T01500028 56003
PAMM 151956Z AUTO 35006KT 10SM CLR 11/07 A3035 RMK AO2 SLP269 T01060072
PAMM 151856Z AUTO 36003KT 10SM FEW001 11/07 A3036 RMK AO2 SLP270 T01060072
PAMM 151756Z AUTO 02003KT 10SM FEW001 09/07 A3036 RMK AO2 SLP271 T00940067 10106 20083 53008
PAMM 151740Z AUTO 07003KT 10SM FEW001 09/06 A3035 RMK AO2
PAMM 151656Z AUTO 07003KT 10SM CLR 09/07 A3035 RMK AO2 SLP269 T00890067
PAMM 151647Z AUTO 00000KT 8SM CLR 09/06 A3035 RMK AO2
PAMM 151637Z AUTO 00000KT 3/4SM HZ CLR 09/06 A3035 RMK AO2
PAMM 151556Z AUTO 00000KT 10SM CLR 09/06 A3034 RMK AO2 SLP265 T00940061
PAMM 151456Z AUTO VRB04KT 10SM CLR 09/06 A3034 RMK AO2 SLP263 T00940061 54000
PAMM 151356Z AUTO 19004KT 10SM FEW020 10/06 A3033 RMK AO2 SLP263 T01000061
PAMM 151256Z AUTO VRB04KT 10SM FEW019 11/06 A3034 RMK AO2 SLP264 T01060061
PAMM 151156Z AUTO 22005KT 10SM CLR 11/06 A3034 RMK AO2 SLP263 T01060061 10128 20106 51005
PAMM 151056Z AUTO 19008KT 10SM CLR 11/05 A3034 RMK AO2 SLP263 T01110050
PAMM 150956Z AUTO 16007KT 10SM CLR 12/04 A3033 RMK AO2 SLP261 T01170044
PAMM 150856Z AUTO 17005KT 10SM CLR 12/03 A3032 RMK AO2 SLP258 T01220033 58002
PAMM 150756Z AUTO 15009G16KT 120V190 10SM CLR 13/03 A3032 RMK AO2 SLP259 T01280033 401280050
PAMM 150656Z AUTO 14006G16KT 10SM CLR 12/04 A3033 RMK AO2 SLP261 T01220039
PAMM 150556Z AUTO 16004KT 10SM CLR 12/05 A3033 RMK AO2 SLP260 T01220050 10122 20089 55006
PAMM 150456Z AUTO VRB06KT 10SM CLR 11/06 A3032 RMK AO2 SLP259 T01110061
PAMM 150428Z AUTO VRB03KT 10SM FEW017 11/07 A3033 RMK AO2
PAMM 150356Z AUTO 00000KT 10SM OVC019 09/08 A3033 RMK AO2 SLP261 T00890078
PAMM 150336Z AUTO 00000KT 10SM BKN019 09/08 A3034 RMK AO2
PAMM 150256Z AUTO 00000KT 10SM CLR 09/08 A3034 RMK AO2 SLP266 T00940078 55001
PAMM 150208Z AUTO 00000KT 10SM FEW018 10/08 A3034 RMK AO2